Terminal Aerodrome Forecast
Issued by NWS Nashville, TN

Home | Current Version | Previous Version | Text Only | Print | Product List | Glossary On
Versions: 1 2 3 4 5 6 7 8 9 10 11 12 13 14 15 16 17 18 19 20 21 22 23 24 25 26 27 28 29 30 31 32 33 34 35 36 37 38 39 40 41 42 43 44 45 46 47 48
581
FTUS44 KOHX 240704 AAB
TAFCSV
TAF AMD
KCSV 240704Z 2407/2506 22005KT P6SM OVC008
      TEMPO 2407/2409 4SM -RA BR BKN004
     FM240900 26005KT P6SM BKN015
     FM241100 27004KT P6SM BKN025
     FM241400 31008KT P6SM SCT025=

USA.gov is the U.S. government's official web portal to all federal, state and local government web resources and services.